Time;durP1;ratioP1;P1;durP2;ratioP2;P2;SDS_P1;SDS_P2;PMS_P1;PMS_P2;Temp;Humidity;BMP_temperature;BMP_pressure;BME280_temperature;BME280_humidity;BME280_pressure;Samples;Min_cycle;Max_cycle;Signal;HPM_P1;HPM_P2
2021/07/19 00:00:47;;;;;;;2.50;0.90;;;18.20;99.90;;;;;;5085009;28;20040;-71
2021/07/19 00:03:12;;;;;;;6.25;1.45;;;18.20;99.90;;;;;;5082238;28;20545;-70
2021/07/19 00:05:38;;;;;;;2.65;1.58;;;18.10;99.90;;;;;;5084999;28;20506;-70
2021/07/19 00:08:04;;;;;;;2.03;1.10;;;18.00;99.90;;;;;;5063848;28;20119;-70
2021/07/19 00:10:29;;;;;;;3.55;1.25;;;18.00;99.90;;;;;;5084104;28;20071;-71
2021/07/19 00:12:55;;;;;;;2.13;1.38;;;18.00;99.90;;;;;;5083969;28;20089;-70
2021/07/19 00:15:24;;;;;;;5.30;1.67;;;17.90;99.90;;;;;;5082078;28;20095;-70
2021/07/19 00:17:51;;;;;;;2.97;1.30;;;17.80;99.90;;;;;;5083902;28;20247;-71
2021/07/19 00:20:17;;;;;;;4.75;1.30;;;17.80;99.90;;;;;;5082766;28;20029;-70
2021/07/19 00:22:44;;;;;;;4.90;1.80;;;17.80;99.90;;;;;;5067100;28;20039;-70
2021/07/19 00:25:12;;;;;;;11.60;1.90;;;17.80;99.90;;;;;;5080468;28;20064;-70
2021/07/19 00:27:39;;;;;;;5.63;1.23;;;17.80;99.90;;;;;;5085852;28;20055;-70
2021/07/19 00:30:06;;;;;;;5.20;1.40;;;17.80;99.90;;;;;;5063250;28;20029;-70
2021/07/19 00:32:32;;;;;;;6.90;1.60;;;17.80;99.90;;;;;;5086182;28;20060;-70
2021/07/19 00:34:57;;;;;;;2.92;1.45;;;17.80;99.90;;;;;;5083058;28;20369;-70
2021/07/19 00:37:23;;;;;;;8.55;1.77;;;17.80;99.90;;;;;;5066072;28;20044;-70
2021/07/19 00:39:49;;;;;;;5.60;1.45;;;17.80;99.90;;;;;;5062619;28;20037;-71
2021/07/19 00:42:14;;;;;;;5.30;1.35;;;17.70;99.90;;;;;;5066361;28;20028;-71
2021/07/19 00:44:40;;;;;;;7.03;1.70;;;17.60;99.90;;;;;;5079789;28;20064;-70
2021/07/19 00:47:06;;;;;;;4.43;1.30;;;17.60;99.90;;;;;;5084188;28;20036;-70
2021/07/19 00:49:34;;;;;;;4.90;1.80;;;17.60;99.90;;;;;;5076073;28;20036;-70
2021/07/19 00:52:00;;;;;;;5.32;2.15;;;17.60;99.90;;;;;;5065497;28;20488;-70
2021/07/19 00:54:29;;;;;;;6.93;2.05;;;17.50;99.90;;;;;;5080924;28;20054;-70
2021/07/19 00:56:56;;;;;;;4.25;1.35;;;17.50;99.90;;;;;;5062625;28;20024;-70
2021/07/19 00:59:24;;;;;;;7.30;1.65;;;17.50;99.90;;;;;;5082008;28;20119;-70
2021/07/19 01:01:54;;;;;;;3.78;1.48;;;17.40;99.90;;;;;;5084499;28;20471;-70
2021/07/19 01:04:22;;;;;;;3.22;1.20;;;17.50;99.90;;;;;;5083840;28;20040;-70
2021/07/19 01:06:51;;;;;;;4.30;1.70;;;17.40;99.90;;;;;;5066508;28;20081;-70
2021/07/19 01:09:16;;;;;;;3.15;1.48;;;17.40;99.90;;;;;;5081502;28;20338;-70
2021/07/19 01:11:42;;;;;;;10.73;2.10;;;17.40;99.90;;;;;;5084964;28;20125;-70
2021/07/19 01:14:08;;;;;;;5.30;1.60;;;17.30;99.90;;;;;;5080372;28;20147;-70
2021/07/19 01:16:33;;;;;;;4.88;1.70;;;17.30;99.90;;;;;;5081804;28;20035;-70
2021/07/19 01:18:59;;;;;;;4.18;1.35;;;17.30;99.90;;;;;;5084517;28;20036;-70
2021/07/19 01:21:59;;;;;;;3.55;1.40;;;17.20;99.90;;;;;;5083361;28;20042;-70
2021/07/19 01:24:56;;;;;;;4.07;1.60;;;17.20;99.90;;;;;;5081811;28;20035;-70
2021/07/19 01:27:49;;;;;;;3.53;1.83;;;17.20;99.90;;;;;;5063230;28;20056;-70
2021/07/19 01:30:15;;;;;;;7.75;2.47;;;17.20;99.90;;;;;;5079037;28;20107;-70
2021/07/19 01:32:43;;;;;;;4.55;1.58;;;17.20;99.90;;;;;;5084806;28;20118;-70
2021/07/19 01:35:12;;;;;;;6.28;2.30;;;17.10;99.90;;;;;;5081191;28;20666;-71
2021/07/19 01:37:39;;;;;;;5.85;2.15;;;17.10;99.90;;;;;;5085246;28;20036;-70
2021/07/19 01:40:07;;;;;;;5.40;2.00;;;17.00;99.90;;;;;;5077080;28;20750;-74
2021/07/19 01:42:35;;;;;;;4.88;1.63;;;17.00;99.90;;;;;;5063419;28;20131;-70
2021/07/19 01:45:01;;;;;;;4.53;1.77;;;17.00;99.90;;;;;;5084212;28;20036;-70
2021/07/19 01:47:28;;;;;;;6.20;1.92;;;16.90;99.90;;;;;;5082112;28;20039;-70
2021/07/19 01:49:54;;;;;;;5.13;2.13;;;16.90;99.90;;;;;;5084375;28;20112;-70
2021/07/19 01:52:21;;;;;;;4.70;1.77;;;16.90;99.90;;;;;;5065229;28;20047;-70
2021/07/19 01:54:47;;;;;;;5.80;1.90;;;16.80;99.90;;;;;;5082612;28;20047;-70
2021/07/19 01:57:14;;;;;;;5.15;1.60;;;16.80;99.90;;;;;;5074225;28;20044;-71
2021/07/19 01:59:40;;;;;;;4.32;1.65;;;16.80;99.90;;;;;;5077927;28;20024;-70
2021/07/19 02:02:07;;;;;;;5.47;1.90;;;16.70;99.90;;;;;;5081753;28;20034;-70
2021/07/19 02:04:33;;;;;;;6.32;2.50;;;16.70;99.90;;;;;;5076028;28;20031;-70
2021/07/19 02:07:00;;;;;;;4.97;1.70;;;16.70;99.90;;;;;;5083481;28;20032;-70
2021/07/19 02:09:26;;;;;;;7.20;1.77;;;16.70;99.90;;;;;;5079981;28;20051;-70
2021/07/19 02:11:51;;;;;;;5.97;2.10;;;16.60;99.90;;;;;;5082711;28;20058;-70
2021/07/19 02:14:18;;;;;;;6.75;2.67;;;16.60;99.90;;;;;;5082021;28;20152;-70
2021/07/19 02:16:50;;;;;;;8.18;2.33;;;16.50;99.90;;;;;;5064426;28;20060;-70
2021/07/19 02:19:16;;;;;;;10.77;1.88;;;16.60;99.90;;;;;;5082635;28;20139;-71
2021/07/19 02:21:42;;;;;;;6.88;2.08;;;16.60;99.90;;;;;;5081924;28;20037;-70
2021/07/19 02:24:08;;;;;;;5.53;1.83;;;16.50;99.90;;;;;;5084456;28;20035;-70
2021/07/19 02:26:34;;;;;;;6.13;2.38;;;16.50;99.90;;;;;;5079674;28;20131;-70
2021/07/19 02:29:00;;;;;;;7.60;2.15;;;16.50;99.90;;;;;;5058132;28;20401;-70
2021/07/19 02:31:26;;;;;;;5.50;2.00;;;16.50;99.90;;;;;;5062617;28;20095;-70
2021/07/19 02:33:53;;;;;;;10.68;2.33;;;16.50;99.90;;;;;;5065385;28;20488;-70
2021/07/19 02:36:21;;;;;;;4.18;1.98;;;16.40;99.90;;;;;;5063629;28;20048;-70
2021/07/19 02:38:51;;;;;;;4.88;1.98;;;16.40;99.90;;;;;;5082699;28;20048;-70
2021/07/19 02:41:19;;;;;;;5.00;2.08;;;16.30;99.90;;;;;;5080155;28;20036;-71
2021/07/19 02:43:48;;;;;;;4.25;1.92;;;16.30;99.90;;;;;;5083701;28;20059;-70
2021/07/19 02:46:15;;;;;;;7.57;2.20;;;16.30;99.90;;;;;;5081981;28;20044;-70
2021/07/19 02:48:42;;;;;;;3.92;1.98;;;16.30;99.90;;;;;;5065573;28;20046;-70
2021/07/19 02:51:10;;;;;;;6.55;2.20;;;16.30;99.90;;;;;;5085733;28;20032;-70
2021/07/19 02:53:36;;;;;;;5.47;1.95;;;16.20;99.90;;;;;;5080281;28;20028;-70
2021/07/19 02:56:04;;;;;;;4.90;1.83;;;16.20;99.90;;;;;;5066445;28;20027;-70
2021/07/19 02:58:30;;;;;;;3.78;1.98;;;16.20;99.90;;;;;;5063801;28;20036;-71
2021/07/19 03:00:58;;;;;;;4.85;2.20;;;16.20;99.90;;;;;;5060800;28;20043;-70
2021/07/19 03:03:28;;;;;;;7.35;1.95;;;16.10;99.90;;;;;;5064321;28;20423;-70
2021/07/19 03:06:10;;;;;;;8.38;1.95;;;16.10;99.90;;;;;;5077899;28;20044;-70
2021/07/19 03:08:40;;;;;;;6.53;2.03;;;16.10;99.90;;;;;;5075135;28;20119;-70
2021/07/19 03:11:17;;;;;;;6.30;2.00;;;16.00;99.90;;;;;;5077910;28;20404;-70
2021/07/19 03:13:51;;;;;;;6.15;2.15;;;16.00;99.90;;;;;;5062199;28;20127;-70
2021/07/19 03:16:18;;;;;;;6.90;2.42;;;16.00;99.90;;;;;;5064047;28;20369;-70
2021/07/19 03:18:45;;;;;;;5.45;2.13;;;16.00;99.90;;;;;;5082652;28;20043;-70
2021/07/19 03:21:14;;;;;;;6.38;2.15;;;16.00;99.90;;;;;;5081234;28;20418;-70
2021/07/19 03:23:40;;;;;;;10.68;2.15;;;15.90;99.90;;;;;;5064180;28;20113;-71
2021/07/19 03:26:06;;;;;;;6.65;2.25;;;15.90;99.90;;;;;;5080040;28;20041;-70
2021/07/19 03:28:32;;;;;;;7.00;2.30;;;15.90;99.90;;;;;;5083715;28;20028;-70
2021/07/19 03:30:59;;;;;;;11.50;2.50;;;15.90;99.90;;;;;;5057821;28;20031;-71
2021/07/19 03:33:25;;;;;;;5.72;2.05;;;16.00;99.90;;;;;;5082904;28;20075;-70
2021/07/19 03:35:54;;;;;;;4.97;2.00;;;16.00;99.90;;;;;;5062433;28;20040;-71
2021/07/19 03:38:19;;;;;;;8.68;2.30;;;15.90;99.90;;;;;;5082569;28;20029;-70
2021/07/19 03:40:46;;;;;;;7.45;2.55;;;15.90;99.90;;;;;;5060872;28;20044;-71
2021/07/19 03:43:11;;;;;;;4.00;1.80;;;15.80;99.90;;;;;;5080949;28;20033;-70
2021/07/19 03:45:38;;;;;;;6.10;2.60;;;15.80;99.90;;;;;;5081834;28;20048;-71
2021/07/19 03:48:05;;;;;;;4.82;2.05;;;15.80;99.90;;;;;;5080135;28;20036;-69
2021/07/19 03:50:31;;;;;;;5.07;1.80;;;15.80;99.90;;;;;;5083094;28;20511;-70
2021/07/19 03:52:57;;;;;;;6.13;2.17;;;15.70;99.90;;;;;;5079147;28;20029;-71
2021/07/19 03:55:23;;;;;;;5.53;2.50;;;15.70;99.90;;;;;;5081768;28;20028;-68
2021/07/19 03:57:51;;;;;;;3.88;2.17;;;15.60;99.90;;;;;;5079097;28;20047;-71
2021/07/19 04:00:18;;;;;;;7.68;2.38;;;15.60;99.90;;;;;;5079934;28;20032;-69
2021/07/19 04:02:49;;;;;;;4.65;1.90;;;15.60;99.90;;;;;;5081438;28;20312;-68
2021/07/19 04:05:15;;;;;;;5.95;2.33;;;15.70;99.90;;;;;;5081263;28;20134;-69
2021/07/19 04:07:47;;;;;;;3.65;2.03;;;15.70;99.90;;;;;;5062896;28;20041;-71
2021/07/19 04:10:16;;;;;;;5.72;2.90;;;15.70;99.90;;;;;;5062451;28;20036;-71
2021/07/19 04:12:47;;;;;;;7.10;1.90;;;15.70;99.90;;;;;;5080548;28;20489;-71
2021/07/19 04:15:14;;;;;;;5.00;1.90;;;15.70;99.90;;;;;;5080564;28;20070;-68
2021/07/19 04:17:40;;;;;;;4.45;1.73;;;15.70;99.90;;;;;;5081057;28;20086;-68
2021/07/19 04:20:08;;;;;;;4.40;1.88;;;15.70;99.90;;;;;;5082292;28;20232;-71
2021/07/19 04:22:34;;;;;;;4.32;1.83;;;15.70;99.90;;;;;;5080044;28;20028;-70
2021/07/19 04:25:04;;;;;;;7.20;2.10;;;15.70;99.90;;;;;;5064358;28;20051;-69
2021/07/19 04:27:32;;;;;;;6.90;2.13;;;15.70;99.90;;;;;;5079926;28;20020;-71
2021/07/19 04:29:57;;;;;;;9.60;2.20;;;15.70;99.90;;;;;;5083237;28;20051;-71
2021/07/19 04:32:23;;;;;;;8.70;2.20;;;15.70;99.90;;;;;;5053984;28;20424;-69
2021/07/19 04:34:49;;;;;;;3.28;1.92;;;15.70;99.90;;;;;;5079079;28;20029;-71
2021/07/19 04:37:15;;;;;;;4.88;2.22;;;15.70;99.90;;;;;;5077456;28;20037;-70
2021/07/19 04:39:41;;;;;;;5.32;2.17;;;15.80;99.90;;;;;;5078873;28;20064;-69
2021/07/19 04:42:08;;;;;;;6.43;1.98;;;15.80;99.90;;;;;;5059454;28;20056;-71
2021/07/19 04:44:36;;;;;;;8.48;2.40;;;15.80;99.90;;;;;;5077599;28;20627;-69
2021/07/19 04:47:02;;;;;;;7.38;1.65;;;15.90;99.90;;;;;;5065062;28;20048;-71
2021/07/19 04:49:28;;;;;;;5.95;2.10;;;15.90;99.90;;;;;;5085471;28;20093;-71
2021/07/19 04:51:55;;;;;;;6.32;2.35;;;15.90;99.90;;;;;;5078197;28;20028;-71
2021/07/19 04:54:29;;;;;;;7.22;2.10;;;15.90;99.90;;;;;;5074233;28;20051;-71
2021/07/19 04:57:00;;;;;;;4.15;1.92;;;16.00;99.90;;;;;;5077626;28;20028;-71
2021/07/19 04:59:29;;;;;;;5.25;2.00;;;16.10;99.90;;;;;;5074568;28;20055;-71
2021/07/19 05:01:55;;;;;;;6.78;2.13;;;16.20;99.90;;;;;;5072464;28;20045;-71
2021/07/19 05:04:25;;;;;;;8.00;2.13;;;16.30;99.90;;;;;;5073976;28;20029;-70
2021/07/19 05:06:52;;;;;;;5.65;2.70;;;16.50;99.90;;;;;;5073877;28;20043;-71
2021/07/19 05:09:19;;;;;;;4.88;2.50;;;16.60;99.90;;;;;;5056781;28;20218;-71
2021/07/19 05:11:47;;;;;;;11.90;2.75;;;16.80;99.90;;;;;;5073499;28;20123;-71
2021/07/19 05:14:13;;;;;;;7.45;2.53;;;16.90;99.90;;;;;;5071480;28;20078;-71
2021/07/19 05:16:40;;;;;;;8.52;2.38;;;17.10;99.90;;;;;;5072371;28;20043;-71
2021/07/19 05:19:06;;;;;;;5.90;2.45;;;17.20;99.90;;;;;;5055232;28;20033;-72
2021/07/19 05:21:35;;;;;;;4.60;2.22;;;17.30;99.90;;;;;;5077568;28;20033;-71
2021/07/19 05:24:01;;;;;;;6.13;1.92;;;17.40;99.90;;;;;;5074419;28;20065;-71
2021/07/19 05:26:27;;;;;;;7.72;2.17;;;17.50;99.90;;;;;;5070849;28;20119;-71
2021/07/19 05:28:52;;;;;;;5.55;2.10;;;17.50;99.90;;;;;;5060426;28;20050;-71
2021/07/19 05:31:18;;;;;;;8.38;2.03;;;17.50;99.90;;;;;;5074218;28;20091;-71
2021/07/19 05:33:43;;;;;;;14.07;3.22;;;17.50;99.90;;;;;;5075451;28;20052;-71
2021/07/19 05:36:11;;;;;;;6.60;2.40;;;17.70;99.90;;;;;;5054707;28;20127;-72
2021/07/19 05:38:36;;;;;;;3.95;1.70;;;17.90;99.90;;;;;;5074385;28;20040;-71
2021/07/19 05:41:02;;;;;;;4.25;1.90;;;18.20;99.90;;;;;;5070412;28;20032;-69
2021/07/19 05:43:29;;;;;;;7.88;2.08;;;18.50;99.90;;;;;;5054917;28;20564;-69
2021/07/19 05:45:55;;;;;;;9.98;2.05;;;19.00;99.90;;;;;;5075739;28;20074;-69
2021/07/19 05:48:20;;;;;;;5.15;1.75;;;19.10;99.90;;;;;;5069613;28;20408;-71
2021/07/19 05:50:46;;;;;;;4.75;1.65;;;19.20;99.90;;;;;;5075002;28;20616;-72
2021/07/19 05:53:11;;;;;;;5.80;1.80;;;19.30;99.90;;;;;;5057058;28;20040;-71
2021/07/19 05:55:37;;;;;;;8.13;2.28;;;19.40;99.90;;;;;;5052990;28;20044;-71
2021/07/19 05:58:03;;;;;;;5.20;2.00;;;19.40;99.90;;;;;;5055902;28;20028;-71
2021/07/19 06:00:29;;;;;;;4.05;1.70;;;19.50;99.90;;;;;;5075047;28;20029;-71
2021/07/19 06:02:55;;;;;;;4.10;1.73;;;19.70;99.90;;;;;;5071659;28;20024;-71
2021/07/19 06:05:21;;;;;;;4.30;1.85;;;20.00;99.90;;;;;;5051876;28;20040;-70
2021/07/19 06:07:46;;;;;;;2.45;1.38;;;20.00;99.90;;;;;;5049567;28;20029;-70
2021/07/19 06:10:13;;;;;;;5.47;1.23;;;20.10;99.90;;;;;;5048598;28;20106;-72
2021/07/19 06:12:40;;;;;;;3.80;1.50;;;20.10;99.90;;;;;;5071970;28;20028;-71
2021/07/19 06:15:08;;;;;;;6.32;1.77;;;20.20;99.90;;;;;;5072545;28;20029;-71
2021/07/19 06:17:36;;;;;;;4.78;1.33;;;20.30;99.90;;;;;;5072987;28;20016;-71
2021/07/19 06:20:06;;;;;;;4.03;1.67;;;20.40;99.90;;;;;;5060683;28;20143;-71
2021/07/19 06:22:32;;;;;;;4.13;1.33;;;20.40;99.90;;;;;;5059476;28;20116;-71
2021/07/19 06:24:57;;;;;;;6.25;1.70;;;20.50;99.90;;;;;;5071970;28;20543;-69
2021/07/19 06:27:23;;;;;;;9.38;2.30;;;20.60;99.90;;;;;;5068044;28;20445;-70
2021/07/19 06:29:48;;;;;;;4.97;1.88;;;20.60;99.90;;;;;;5073713;28;20416;-71
2021/07/19 06:32:14;;;;;;;6.47;1.70;;;20.60;99.90;;;;;;5073960;28;20027;-71
2021/07/19 06:34:40;;;;;;;3.55;1.90;;;20.70;99.90;;;;;;5055498;28;20047;-71
2021/07/19 06:37:05;;;;;;;4.88;1.88;;;20.70;99.90;;;;;;5070648;28;20247;-71
2021/07/19 06:39:31;;;;;;;3.67;1.73;;;20.80;99.90;;;;;;5060587;28;20389;-71
2021/07/19 06:41:56;;;;;;;4.40;1.65;;;20.70;99.90;;;;;;5057867;28;20067;-72
2021/07/19 06:44:22;;;;;;;11.07;1.77;;;20.80;99.90;;;;;;5070894;28;20031;-72
2021/07/19 06:46:48;;;;;;;5.47;2.38;;;20.90;99.90;;;;;;5073719;28;20041;-69
2021/07/19 06:49:14;;;;;;;6.88;2.00;;;21.00;99.90;;;;;;5074121;28;20419;-69
2021/07/19 06:51:39;;;;;;;5.30;2.28;;;21.00;99.90;;;;;;5053395;28;20047;-71
2021/07/19 06:54:05;;;;;;;5.40;2.10;;;21.00;99.90;;;;;;5075019;28;20093;-70
2021/07/19 06:56:31;;;;;;;7.47;1.92;;;21.10;99.90;;;;;;5060450;28;20040;-71
2021/07/19 06:58:57;;;;;;;9.48;1.95;;;21.30;99.90;;;;;;5057796;28;20028;-72
2021/07/19 07:01:23;;;;;;;9.77;2.53;;;21.50;99.90;;;;;;5053125;28;20032;-72
2021/07/19 07:03:49;;;;;;;5.53;1.85;;;21.70;99.90;;;;;;5055295;28;20041;-71
2021/07/19 07:06:14;;;;;;;3.55;2.00;;;22.10;99.90;;;;;;5074913;28;20038;-71
2021/07/19 07:08:40;;;;;;;6.18;1.80;;;22.30;99.90;;;;;;5056217;28;20037;-71
2021/07/19 07:11:05;;;;;;;3.85;2.10;;;22.40;99.90;;;;;;5059664;28;20055;-71
2021/07/19 07:13:31;;;;;;;6.18;2.20;;;22.40;99.90;;;;;;5068923;28;20036;-71
2021/07/19 07:15:57;;;;;;;3.17;1.83;;;22.50;99.90;;;;;;5073088;28;20069;-71
2021/07/19 07:18:22;;;;;;;6.55;1.98;;;22.60;99.90;;;;;;5053716;28;20580;-69
2021/07/19 07:20:48;;;;;;;4.03;1.80;;;22.80;99.90;;;;;;5070862;28;20072;-70
2021/07/19 07:23:13;;;;;;;3.15;1.98;;;22.80;99.90;;;;;;5070248;28;20024;-71
2021/07/19 07:25:39;;;;;;;5.78;1.83;;;22.70;99.90;;;;;;5073550;28;20123;-71
2021/07/19 07:28:05;;;;;;;3.10;1.00;;;22.50;99.90;;;;;;5073213;28;20044;-71
2021/07/19 07:30:30;;;;;;;3.30;1.40;;;22.30;99.90;;;;;;5059907;28;20036;-71
2021/07/19 07:32:56;;;;;;;4.47;1.60;;;22.20;99.90;;;;;;5057639;28;20043;-71
2021/07/19 07:35:22;;;;;;;4.22;1.55;;;22.00;99.90;;;;;;5069523;28;20029;-71
2021/07/19 07:37:47;;;;;;;5.20;1.77;;;21.90;99.90;;;;;;5071523;28;20558;-70
2021/07/19 07:40:16;;;;;;;3.85;1.25;;;21.80;99.90;;;;;;5057456;28;20028;-71
2021/07/19 07:42:42;;;;;;;12.23;2.00;;;21.60;99.90;;;;;;5056863;28;20128;-71
2021/07/19 07:45:09;;;;;;;2.95;1.48;;;21.50;99.90;;;;;;5071937;28;20480;-71
2021/07/19 07:47:34;;;;;;;3.67;1.70;;;21.40;99.90;;;;;;5058620;28;20029;-70
2021/07/19 07:50:00;;;;;;;3.30;1.63;;;21.20;99.90;;;;;;5072339;28;20090;-70
2021/07/19 07:52:26;;;;;;;3.30;1.50;;;21.20;99.90;;;;;;5057490;28;20056;-70
2021/07/19 07:54:52;;;;;;;2.38;1.20;;;21.20;99.90;;;;;;5072582;28;20059;-70
2021/07/19 07:57:18;;;;;;;3.60;1.52;;;21.30;99.90;;;;;;5058321;28;20021;-70
2021/07/19 07:59:43;;;;;;;4.32;2.13;;;21.30;99.90;;;;;;5055477;28;20075;-70
2021/07/19 08:02:09;;;;;;;3.65;1.70;;;21.40;99.90;;;;;;5072540;28;20024;-71
2021/07/19 08:04:36;;;;;;;4.72;1.80;;;21.60;99.90;;;;;;5074480;28;20036;-73
2021/07/19 08:07:03;;;;;;;2.28;1.13;;;21.60;99.90;;;;;;5073059;28;20029;-70
2021/07/19 08:09:29;;;;;;;4.00;1.50;;;21.50;99.90;;;;;;5077245;28;20064;-71
2021/07/19 08:11:55;;;;;;;4.10;1.65;;;21.60;99.90;;;;;;5075483;28;20060;-70
2021/07/19 08:14:21;;;;;;;3.03;1.52;;;21.50;99.90;;;;;;5076613;28;20032;-71
2021/07/19 08:16:47;;;;;;;4.32;1.42;;;21.60;99.90;;;;;;5074553;28;20128;-71
2021/07/19 08:19:13;;;;;;;4.95;1.67;;;21.70;99.90;;;;;;5073837;28;20037;-71
2021/07/19 08:21:40;;;;;;;5.40;1.40;;;21.90;99.90;;;;;;5073421;28;20477;-70
2021/07/19 08:24:08;;;;;;;2.50;1.20;;;22.30;99.90;;;;;;5072949;28;20051;-71
2021/07/19 08:26:34;;;;;;;2.33;1.05;;;22.60;99.90;;;;;;5075170;28;20523;-70
2021/07/19 08:29:00;;;;;;;3.58;1.60;;;22.60;99.90;;;;;;5074249;28;20040;-68
2021/07/19 08:31:27;;;;;;;6.20;1.58;;;22.50;99.90;;;;;;5075747;28;20039;-71
2021/07/19 08:33:54;;;;;;;3.63;1.45;;;22.70;99.90;;;;;;5076403;28;20515;-71
2021/07/19 08:36:20;;;;;;;3.17;1.38;;;23.30;99.90;;;;;;5073580;28;20583;-69
2021/07/19 08:38:47;;;;;;;7.55;1.65;;;24.20;99.90;;;;;;5061348;28;20047;-70
2021/07/19 08:41:13;;;;;;;7.35;1.40;;;25.30;99.90;;;;;;5073843;28;20170;-70
2021/07/19 08:43:40;;;;;;;4.40;1.65;;;25.40;98.10;;;;;;5073926;28;20055;-70
2021/07/19 08:46:07;;;;;;;4.82;1.58;;;25.20;98.20;;;;;;5062247;28;20801;-69
2021/07/19 08:48:33;;;;;;;4.88;1.80;;;24.80;98.50;;;;;;5073609;28;20040;-69
2021/07/19 08:51:00;;;;;;;2.75;1.67;;;24.20;98.80;;;;;;5076154;28;20033;-71
2021/07/19 08:53:27;;;;;;;2.28;1.45;;;23.90;99.90;;;;;;5062943;28;20045;-71
2021/07/19 08:55:56;;;;;;;7.00;2.08;;;23.50;99.60;;;;;;5075027;28;20447;-71
2021/07/19 08:58:22;;;;;;;3.65;1.80;;;23.30;99.90;;;;;;5072378;28;20556;-71
2021/07/19 09:00:50;;;;;;;6.95;2.03;;;23.10;99.90;;;;;;5059639;28;20067;-71
2021/07/19 09:03:15;;;;;;;3.35;1.70;;;23.00;99.90;;;;;;5071940;28;20057;-70
2021/07/19 09:05:41;;;;;;;7.95;2.08;;;23.10;99.90;;;;;;5074085;28;20497;-71
2021/07/19 09:08:07;;;;;;;5.32;1.77;;;23.30;99.90;;;;;;5073361;28;20031;-70
2021/07/19 09:10:33;;;;;;;9.07;2.08;;;23.50;99.90;;;;;;5075499;28;20028;-70
2021/07/19 09:13:02;;;;;;;3.72;1.48;;;23.80;99.90;;;;;;5064630;28;20063;-70
2021/07/19 09:15:31;;;;;;;6.50;1.85;;;24.00;99.90;;;;;;5080898;28;20062;-70
2021/07/19 09:17:58;;;;;;;7.00;2.17;;;24.30;99.90;;;;;;5075056;28;20044;-70
2021/07/19 09:20:40;;;;;;;4.13;1.80;;;24.50;99.90;;;;;;5079571;28;20541;-70
2021/07/19 09:23:09;;;;;;;4.20;1.95;;;24.60;98.90;;;;;;5076913;28;20700;-70
2021/07/19 09:25:35;;;;;;;8.80;2.60;;;24.50;99.90;;;;;;5060584;28;20032;-70
2021/07/19 09:28:10;;;;;;;4.95;2.13;;;24.30;99.50;;;;;;5077361;28;20036;-71
2021/07/19 09:30:43;;;;;;;8.50;2.75;;;24.00;99.90;;;;;;5077360;28;20024;-71
2021/07/19 09:33:18;;;;;;;4.50;2.28;;;23.90;99.90;;;;;;5077045;28;20039;-71
2021/07/19 09:35:48;;;;;;;4.32;1.98;;;23.90;99.90;;;;;;5075569;28;20526;-71
2021/07/19 09:38:17;;;;;;;2.92;1.83;;;23.90;99.90;;;;;;5077469;28;20070;-71
2021/07/19 09:40:53;;;;;;;7.10;2.08;;;24.20;99.90;;;;;;5076068;28;20037;-71
2021/07/19 09:43:22;;;;;;;4.53;1.50;;;24.40;99.90;;;;;;5061898;28;22318;-70
2021/07/19 09:46:00;;;;;;;4.45;2.25;;;24.60;99.90;;;;;;5076359;28;20041;-71
2021/07/19 09:48:26;;;;;;;4.45;2.10;;;24.60;99.90;;;;;;5079047;28;20042;-71
2021/07/19 09:50:53;;;;;;;6.47;2.20;;;24.80;99.80;;;;;;5074127;28;20025;-71
2021/07/19 09:53:34;;;;;;;6.05;2.30;;;24.90;99.40;;;;;;5076109;28;20082;-70
2021/07/19 09:56:19;;;;;;;6.55;1.67;;;25.20;99.30;;;;;;5075595;28;20071;-71
2021/07/19 09:58:48;;;;;;;4.65;1.95;;;25.50;98.80;;;;;;5076977;28;20048;-71
2021/07/19 10:01:28;;;;;;;7.88;2.25;;;25.80;98.20;;;;;;5078660;28;20037;-70
2021/07/19 10:04:11;;;;;;;4.60;2.10;;;26.00;97.30;;;;;;5075274;28;20027;-71
2021/07/19 10:06:39;;;;;;;7.78;2.45;;;26.00;97.60;;;;;;5074472;28;20040;-70
2021/07/19 10:09:13;;;;;;;4.28;2.20;;;25.80;96.50;;;;;;5056861;28;20036;-71
2021/07/19 10:11:43;;;;;;;8.50;2.55;;;25.30;97.20;;;;;;5059610;28;20044;-70
2021/07/19 10:14:09;;;;;;;9.38;2.38;;;25.00;97.30;;;;;;5081915;28;20150;-70
2021/07/19 10:16:36;;;;;;;4.22;2.10;;;25.00;97.90;;;;;;5079640;28;20036;-71
2021/07/19 10:19:04;;;;;;;4.68;2.58;;;24.80;98.40;;;;;;5079102;28;20036;-71
2021/07/19 10:21:32;;;;;;;4.55;1.98;;;24.90;98.40;;;;;;5064953;28;20066;-71
2021/07/19 10:24:04;;;;;;;8.45;2.10;;;24.80;98.70;;;;;;5060046;28;20507;-70
2021/07/19 10:26:30;;;;;;;7.40;2.13;;;24.90;98.60;;;;;;5079734;28;20036;-71
2021/07/19 10:28:57;;;;;;;6.30;2.30;;;25.10;97.40;;;;;;5073179;28;20036;-71
2021/07/19 10:31:25;;;;;;;7.28;1.95;;;25.20;97.70;;;;;;5073913;28;20028;-71
2021/07/19 10:33:53;;;;;;;4.70;2.35;;;25.40;96.90;;;;;;5076431;28;20611;-71
2021/07/19 10:36:32;;;;;;;5.03;2.35;;;25.40;97.00;;;;;;5076687;28;20036;-70
2021/07/19 10:39:06;;;;;;;5.38;2.00;;;25.40;95.80;;;;;;5075741;28;20051;-71
2021/07/19 10:41:32;;;;;;;4.93;2.10;;;25.20;96.40;;;;;;5078409;28;20087;-70
2021/07/19 10:44:04;;;;;;;5.70;2.30;;;25.00;96.30;;;;;;5076371;28;20052;-69
2021/07/19 10:46:30;;;;;;;3.13;1.90;;;25.00;95.90;;;;;;5077626;28;20028;-71
2021/07/19 10:49:27;;;;;;;5.20;1.65;;;24.90;95.30;;;;;;5057944;28;20431;-71
2021/07/19 10:51:53;;;;;;;5.35;1.90;;;25.20;95.90;;;;;;5058675;28;20101;-71
2021/07/19 10:54:23;;;;;;;4.72;2.03;;;25.00;94.50;;;;;;5074253;28;20447;-71
2021/07/19 10:56:53;;;;;;;6.95;2.13;;;24.80;95.00;;;;;;5075909;28;22097;-71
2021/07/19 10:59:30;;;;;;;4.85;2.22;;;24.90;95.50;;;;;;5061638;28;20043;-71
2021/07/19 11:01:57;;;;;;;5.65;2.10;;;25.00;96.10;;;;;;5062669;28;20452;-70
2021/07/19 11:04:24;;;;;;;5.65;2.00;;;25.20;95.90;;;;;;5077389;28;20032;-71
2021/07/19 11:06:57;;;;;;;5.43;2.10;;;25.20;94.10;;;;;;5073334;28;20129;-70
2021/07/19 11:09:43;;;;;;;7.55;1.83;;;25.10;94.70;;;;;;5060041;28;20039;-70
2021/07/19 11:12:16;;;;;;;10.20;2.65;;;25.10;95.20;;;;;;5076799;28;20047;-69
2021/07/19 11:15:08;;;;;;;4.75;2.20;;;25.40;95.10;;;;;;5079031;28;20037;-70
2021/07/19 11:17:34;;;;;;;3.78;1.88;;;25.50;92.90;;;;;;5058878;28;20032;-70
2021/07/19 11:20:13;;;;;;;3.92;2.00;;;25.60;94.30;;;;;;5075119;28;20067;-70
2021/07/19 11:22:39;;;;;;;3.80;2.10;;;25.80;91.30;;;;;;5076782;28;20476;-69
2021/07/19 11:25:14;;;;;;;3.25;2.08;;;25.90;91.90;;;;;;5075101;28;20024;-72
2021/07/19 11:27:43;;;;;;;4.30;2.15;;;25.90;91.70;;;;;;5073640;28;20040;-70
2021/07/19 11:30:22;;;;;;;4.38;2.20;;;25.90;91.30;;;;;;5078610;28;20020;-75
2021/07/19 11:32:48;;;;;;;3.97;2.40;;;25.80;91.90;;;;;;5076090;28;20024;-71
2021/07/19 11:35:23;;;;;;;5.13;2.10;;;25.80;91.70;;;;;;5060758;28;20025;-71
2021/07/19 11:37:51;;;;;;;3.15;1.80;;;25.90;89.80;;;;;;5078836;28;20035;-70
2021/07/19 11:40:30;;;;;;;5.45;2.42;;;26.00;90.00;;;;;;5075873;28;20033;-70
2021/07/19 11:42:55;;;;;;;6.03;2.20;;;26.00;90.80;;;;;;5079663;28;20032;-70
2021/07/19 11:45:21;;;;;;;6.40;2.08;;;25.70;90.10;;;;;;5064346;28;20806;-70
2021/07/19 11:47:48;;;;;;;4.53;2.25;;;25.30;90.50;;;;;;5077972;28;20483;-70
2021/07/19 11:50:17;;;;;;;3.45;1.77;;;25.20;91.10;;;;;;5080399;28;20029;-71
2021/07/19 11:52:44;;;;;;;3.40;2.05;;;24.90;88.80;;;;;;5081451;28;20044;-71
2021/07/19 11:55:13;;;;;;;4.70;1.92;;;24.50;90.50;;;;;;5075232;28;20025;-70
2021/07/19 11:57:50;;;;;;;4.38;1.85;;;24.40;91.00;;;;;;5081948;28;20049;-70
2021/07/19 12:00:28;;;;;;;3.53;1.90;;;24.40;91.90;;;;;;5079086;28;20048;-70
2021/07/19 12:03:12;;;;;;;5.13;2.42;;;24.50;91.20;;;;;;5077572;28;20039;-70
2021/07/19 12:05:50;;;;;;;6.38;2.10;;;24.70;91.60;;;;;;5076691;28;20029;-70
2021/07/19 12:08:23;;;;;;;3.63;1.92;;;24.80;91.20;;;;;;5080837;28;20082;-70
2021/07/19 12:10:50;;;;;;;5.00;1.88;;;24.90;91.70;;;;;;5077896;28;20136;-70
2021/07/19 12:13:16;;;;;;;5.85;1.75;;;25.10;91.90;;;;;;5078191;28;20131;-70
2021/07/19 12:15:54;;;;;;;5.78;1.92;;;25.20;92.10;;;;;;5080148;28;20044;-71
2021/07/19 12:18:33;;;;;;;5.13;2.00;;;25.20;91.70;;;;;;5062870;28;20112;-70
2021/07/19 12:21:05;;;;;;;4.27;2.07;;;25.20;91.10;;;;;;5080593;28;20040;-70
2021/07/19 12:23:42;;;;;;;4.47;2.15;;;25.10;91.60;;;;;;5081983;28;20281;-70
2021/07/19 12:26:11;;;;;;;4.65;1.88;;;25.20;92.30;;;;;;5075396;28;20044;-70
2021/07/19 12:28:37;;;;;;;3.53;2.00;;;25.20;91.60;;;;;;5080817;28;20052;-70
2021/07/19 12:31:14;;;;;;;3.08;1.55;;;25.10;91.50;;;;;;5079654;28;20049;-70
2021/07/19 12:33:39;;;;;;;3.92;1.75;;;25.00;90.60;;;;;;5079054;28;20105;-70
2021/07/19 12:36:06;;;;;;;4.32;2.20;;;24.90;90.00;;;;;;5062450;28;20036;-70
2021/07/19 12:38:31;;;;;;;4.25;2.33;;;24.70;90.70;;;;;;5083704;28;20057;-70
2021/07/19 12:40:57;;;;;;;7.95;2.58;;;24.60;91.70;;;;;;5076829;28;20040;-70
2021/07/19 12:43:23;;;;;;;8.30;2.30;;;24.50;91.40;;;;;;5079451;28;20036;-70
2021/07/19 12:45:50;;;;;;;4.80;2.00;;;24.60;91.60;;;;;;5078860;28;20052;-70
2021/07/19 12:48:16;;;;;;;4.68;2.20;;;24.60;91.20;;;;;;5079534;28;20044;-70
2021/07/19 12:50:41;;;;;;;4.78;2.25;;;24.80;92.20;;;;;;5077682;28;20402;-71